Time;durP1;ratioP1;P1;durP2;ratioP2;P2;SDS_P1;SDS_P2;PMS_P1;PMS_P2;Temp;Humidity;BMP_temperature;BMP_pressure;BME280_temperature;BME280_humidity;BME280_pressure;Samples;Min_cycle;Max_cycle;Signal;HPM_P1;HPM_P2
2022/01/31 00:01:09;;;;;;;5.45;3.58;;;19.10;45.80;;;;;;6157754;28;20089;-77
2022/01/31 00:04:09;;;;;;;7.57;3.47;;;19.10;45.90;;;;;;6172899;28;20019;-77
2022/01/31 00:07:13;;;;;;;5.18;3.05;;;19.10;45.90;;;;;;6173108;28;20098;-77
2022/01/31 00:10:15;;;;;;;5.28;3.10;;;19.10;45.80;;;;;;6173036;28;20030;-77
2022/01/31 00:14:02;;;;;;;5.93;3.38;;;19.10;46.00;;;;;;6173215;28;20027;-76
2022/01/31 00:16:40;;;;;;;5.57;3.50;;;19.10;46.10;;;;;;6169909;28;20042;-77
2022/01/31 00:19:42;;;;;;;5.10;3.20;;;19.10;46.10;;;;;;6173263;28;20038;-76
2022/01/31 00:22:43;;;;;;;6.38;3.10;;;19.10;45.90;;;;;;6172725;28;20544;-77
2022/01/31 00:25:43;;;;;;;5.05;3.20;;;19.10;45.70;;;;;;6172546;28;20030;-77
2022/01/31 00:28:44;;;;;;;6.35;2.90;;;19.10;45.80;;;;;;6172777;28;20038;-76
2022/01/31 00:31:45;;;;;;;4.93;2.95;;;19.10;46.00;;;;;;6172824;28;20339;-78
2022/01/31 00:34:45;;;;;;;6.10;3.53;;;19.10;45.60;;;;;;6148784;28;20106;-78
2022/01/31 00:37:46;;;;;;;5.85;3.10;;;19.10;46.00;;;;;;6148799;28;20042;-77
2022/01/31 00:40:46;;;;;;;6.88;3.33;;;19.10;46.00;;;;;;6148612;28;20525;-75
2022/01/31 00:43:58;;;;;;;5.50;3.10;;;19.10;45.70;;;;;;6148395;29;20035;-76
2022/01/31 00:47:03;;;;;;;5.10;3.03;;;19.10;45.80;;;;;;6148125;29;20471;-77
2022/01/31 00:53:05;;;;;;;7.22;3.28;;;19.10;46.10;;;;;;6148022;29;20110;-76
2022/01/31 00:56:06;;;;;;;6.22;3.30;;;19.10;46.10;;;;;;6148115;29;20477;-77
2022/01/31 00:59:06;;;;;;;4.85;3.05;;;19.10;45.70;;;;;;6148288;29;20035;-77
2022/01/31 01:02:07;;;;;;;5.07;3.08;;;19.10;46.10;;;;;;6147863;28;20066;-77
2022/01/31 01:05:08;;;;;;;5.68;3.15;;;19.10;45.90;;;;;;6148199;29;20475;-76
2022/01/31 01:08:08;;;;;;;3.97;2.45;;;19.10;46.10;;;;;;6147864;29;20103;-77
2022/01/31 01:11:09;;;;;;;5.65;3.13;;;19.10;45.80;;;;;;6148240;29;20508;-77
2022/01/31 01:14:09;;;;;;;4.57;2.55;;;19.10;46.10;;;;;;6148031;29;20035;-77
2022/01/31 01:17:10;;;;;;;6.03;3.28;;;19.10;46.00;;;;;;6147713;29;20332;-77
2022/01/31 01:20:11;;;;;;;6.28;3.60;;;19.10;45.70;;;;;;6148060;29;20183;-77
2022/01/31 01:23:12;;;;;;;4.55;2.78;;;19.10;46.10;;;;;;6147860;29;20042;-78
2022/01/31 01:26:12;;;;;;;5.38;2.55;;;19.10;45.80;;;;;;6148600;28;20027;-77
2022/01/31 01:29:13;;;;;;;5.05;2.83;;;19.10;45.70;;;;;;6171607;28;20108;-76
2022/01/31 01:32:14;;;;;;;5.25;2.83;;;19.10;45.60;;;;;;6164121;28;20035;-76
2022/01/31 01:35:15;;;;;;;4.68;2.60;;;19.10;46.10;;;;;;6147589;28;20031;-77
2022/01/31 01:38:18;;;;;;;6.72;2.78;;;19.10;45.80;;;;;;6147396;28;20503;-77
2022/01/31 01:41:18;;;;;;;4.07;2.55;;;19.10;45.60;;;;;;6147188;28;20135;-77
2022/01/31 01:44:19;;;;;;;6.13;3.35;;;19.10;45.80;;;;;;6148684;28;20035;-77
2022/01/31 01:47:22;;;;;;;6.88;2.55;;;19.10;46.20;;;;;;6147286;29;20126;-77
2022/01/31 01:50:23;;;;;;;5.50;2.72;;;19.10;45.70;;;;;;6148273;28;20450;-76
2022/01/31 01:53:24;;;;;;;4.72;2.92;;;19.10;46.20;;;;;;6147116;29;20078;-77
2022/01/31 01:56:25;;;;;;;5.28;3.10;;;19.10;46.20;;;;;;6146867;29;20054;-77
2022/01/31 01:59:25;;;;;;;5.70;2.83;;;19.10;46.10;;;;;;6147110;29;20236;-77
2022/01/31 02:02:26;;;;;;;5.53;2.95;;;19.10;46.00;;;;;;6147581;29;20095;-77
2022/01/31 02:05:26;;;;;;;4.90;2.88;;;19.10;46.10;;;;;;6146967;29;20042;-76
2022/01/31 02:08:28;;;;;;;5.88;2.97;;;19.10;46.10;;;;;;6147370;29;20023;-77
2022/01/31 02:11:29;;;;;;;4.35;2.67;;;19.10;46.20;;;;;;6147323;29;20030;-77
2022/01/31 02:14:31;;;;;;;5.47;2.83;;;19.10;46.20;;;;;;6150243;28;20049;-77
2022/01/31 02:17:31;;;;;;;4.32;2.33;;;19.10;46.10;;;;;;6151727;29;20062;-77
2022/01/31 02:20:40;;;;;;;5.95;3.45;;;19.10;46.10;;;;;;6153072;28;20059;-77
2022/01/31 02:23:40;;;;;;;4.70;2.65;;;19.10;46.20;;;;;;6175436;28;20063;-78
2022/01/31 02:26:41;;;;;;;4.32;2.80;;;19.10;46.00;;;;;;6171114;28;20027;-77
2022/01/31 02:29:41;;;;;;;4.90;2.85;;;19.10;46.30;;;;;;6151364;28;20051;-77
2022/01/31 02:32:42;;;;;;;3.90;2.65;;;19.10;46.30;;;;;;6158494;28;20019;-77
2022/01/31 02:35:43;;;;;;;3.90;2.38;;;19.10;46.30;;;;;;6175675;28;20023;-76
2022/01/31 02:38:43;;;;;;;5.07;2.97;;;19.10;46.30;;;;;;6174573;28;20041;-77
2022/01/31 02:41:45;;;;;;;6.72;2.80;;;19.00;46.20;;;;;;6174991;28;20089;-77
2022/01/31 02:44:46;;;;;;;5.63;2.83;;;19.00;46.30;;;;;;6175129;28;20027;-76
2022/01/31 02:47:53;;;;;;;5.18;2.80;;;19.00;46.20;;;;;;6174877;28;20081;-75
2022/01/31 02:50:55;;;;;;;6.10;2.88;;;19.00;46.20;;;;;;6174776;28;20033;-77
2022/01/31 02:53:55;;;;;;;4.78;2.83;;;19.00;46.30;;;;;;6175079;28;20394;-77
2022/01/31 02:56:56;;;;;;;5.80;3.03;;;19.00;46.30;;;;;;6174800;28;20030;-77
2022/01/31 02:59:56;;;;;;;7.70;2.70;;;19.00;46.30;;;;;;6174943;28;20506;-77
2022/01/31 03:02:57;;;;;;;4.47;2.40;;;19.00;46.20;;;;;;6173894;28;20093;-77
2022/01/31 03:05:58;;;;;;;4.82;2.47;;;19.00;46.30;;;;;;6174557;28;20038;-77
2022/01/31 03:08:58;;;;;;;5.25;2.70;;;19.00;46.30;;;;;;6174081;28;20328;-76
2022/01/31 03:11:59;;;;;;;6.70;3.00;;;19.00;46.30;;;;;;6174090;28;20037;-76
2022/01/31 03:14:59;;;;;;;4.90;2.72;;;19.00;46.30;;;;;;6174168;28;20356;-77
2022/01/31 03:18:00;;;;;;;4.82;2.42;;;19.00;46.30;;;;;;6170493;28;20046;-78
2022/01/31 03:21:00;;;;;;;5.30;2.50;;;19.00;46.30;;;;;;6174067;28;20035;-77
2022/01/31 03:24:01;;;;;;;3.83;2.38;;;19.00;46.30;;;;;;6174525;28;20031;-77
2022/01/31 03:27:02;;;;;;;5.30;2.78;;;19.00;46.30;;;;;;6174062;28;20023;-77
2022/01/31 03:30:08;;;;;;;5.63;2.63;;;19.00;46.30;;;;;;6175408;28;20027;-75
2022/01/31 03:33:08;;;;;;;7.15;2.70;;;19.00;46.30;;;;;;6163174;28;20089;-76
2022/01/31 03:36:09;;;;;;;6.35;2.60;;;19.00;46.30;;;;;;6150355;28;20028;-75
2022/01/31 03:39:10;;;;;;;5.07;2.60;;;19.00;46.30;;;;;;6149645;28;20399;-77
2022/01/31 03:42:15;;;;;;;5.00;2.58;;;19.00;46.40;;;;;;6150285;28;20521;-76
2022/01/31 03:45:16;;;;;;;6.53;2.60;;;19.00;46.30;;;;;;6150270;29;20110;-76
2022/01/31 03:48:17;;;;;;;6.15;2.72;;;19.00;46.30;;;;;;6150683;29;20478;-76
2022/01/31 03:51:17;;;;;;;5.70;2.75;;;19.00;46.30;;;;;;6149916;29;20038;-76
2022/01/31 03:54:18;;;;;;;5.53;2.67;;;19.00;46.30;;;;;;6149898;29;20110;-77
2022/01/31 03:57:18;;;;;;;6.35;2.78;;;19.00;46.30;;;;;;6149736;29;20039;-75
2022/01/31 04:00:38;;;;;;;4.38;2.30;;;19.00;46.30;;;;;;6147513;29;20039;-76
2022/01/31 04:03:38;;;;;;;5.18;2.33;;;19.00;46.30;;;;;;6150964;29;20482;-77
2022/01/31 04:06:40;;;;;;;4.82;2.70;;;19.00;46.30;;;;;;6149587;29;20030;-76
2022/01/31 04:09:40;;;;;;;5.50;2.60;;;19.00;46.30;;;;;;6147391;29;20041;-77
2022/01/31 04:12:41;;;;;;;5.47;2.60;;;19.00;46.30;;;;;;6149285;29;20019;-77
2022/01/31 04:15:43;;;;;;;4.60;2.70;;;19.00;46.20;;;;;;6149193;29;20148;-78
2022/01/31 04:18:43;;;;;;;3.13;2.17;;;19.00;46.20;;;;;;6149601;29;20046;-77
2022/01/31 04:21:44;;;;;;;6.15;2.70;;;19.00;46.30;;;;;;6172130;28;20023;-77
2022/01/31 04:24:48;;;;;;;5.88;2.60;;;19.00;46.30;;;;;;6172676;28;20050;-77
2022/01/31 04:27:54;;;;;;;5.75;2.88;;;19.00;46.30;;;;;;6172438;28;20041;-77
2022/01/31 04:31:09;;;;;;;5.25;2.28;;;19.00;46.30;;;;;;6172935;28;20486;-79
2022/01/31 04:34:10;;;;;;;;;;;19.00;46.30;;;;;;6153536;28;20115;-77
2022/01/31 04:37:10;;;;;;;4.53;2.42;;;19.00;46.30;;;;;;6148093;28;19914;-77
2022/01/31 04:40:13;;;;;;;3.55;2.30;;;19.00;46.40;;;;;;6148838;28;20287;-77
2022/01/31 04:43:14;;;;;;;5.97;2.97;;;19.00;46.30;;;;;;6171953;28;20636;-78
2022/01/31 04:46:15;;;;;;;6.47;2.63;;;19.00;46.40;;;;;;6172794;28;20686;-77
2022/01/31 04:49:16;;;;;;;4.28;2.35;;;19.00;46.40;;;;;;6172870;28;20030;-77
2022/01/31 04:52:17;;;;;;;6.00;2.60;;;19.00;46.30;;;;;;6172381;28;20526;-76
2022/01/31 04:55:17;;;;;;;5.88;3.00;;;19.00;46.30;;;;;;6186828;28;20112;-76
2022/01/31 04:58:22;;;;;;;7.85;3.05;;;19.00;46.30;;;;;;6171948;28;20410;-77
2022/01/31 05:01:23;;;;;;;2.92;1.95;;;19.00;46.30;;;;;;6171766;28;20381;-75
2022/01/31 05:04:26;;;;;;;5.70;2.42;;;19.00;46.40;;;;;;6171489;28;20392;-77
2022/01/31 05:07:26;;;;;;;5.28;2.33;;;19.00;46.40;;;;;;6171813;28;20034;-78
2022/01/31 05:10:27;;;;;;;4.43;2.60;;;19.00;46.40;;;;;;6172202;28;20049;-77
2022/01/31 05:13:27;;;;;;;5.28;2.55;;;19.00;46.40;;;;;;6172618;28;20019;-78
2022/01/31 05:16:28;;;;;;;3.75;2.25;;;19.00;46.40;;;;;;6172473;28;20031;-76
2022/01/31 05:19:28;;;;;;;4.05;2.25;;;19.00;46.20;;;;;;6172228;28;20035;-76
2022/01/31 05:22:29;;;;;;;5.30;2.35;;;19.00;46.30;;;;;;6172939;28;20494;-77
2022/01/31 05:25:29;;;;;;;6.10;2.25;;;19.00;46.00;;;;;;6171675;28;20029;-77
2022/01/31 05:28:30;;;;;;;5.55;2.15;;;19.00;46.30;;;;;;6172573;28;20105;-77
2022/01/31 05:31:31;;;;;;;5.32;2.50;;;19.00;46.30;;;;;;6171702;28;20031;-75
2022/01/31 05:34:31;;;;;;;4.03;2.00;;;19.00;46.30;;;;;;6150091;28;20027;-76
2022/01/31 05:37:32;;;;;;;4.88;2.10;;;19.00;46.30;;;;;;6147827;28;20047;-76
2022/01/31 05:40:32;;;;;;;4.93;2.35;;;19.00;45.90;;;;;;6148370;28;20501;-77
2022/01/31 05:43:34;;;;;;;4.63;2.42;;;19.00;46.40;;;;;;6162903;28;20054;-76
2022/01/31 05:46:34;;;;;;;5.50;2.40;;;19.00;46.30;;;;;;6172237;28;20401;-77
2022/01/31 05:49:35;;;;;;;5.28;2.33;;;19.10;46.40;;;;;;6174442;28;20030;-77
2022/01/31 05:52:36;;;;;;;4.88;2.25;;;19.10;46.40;;;;;;6176968;28;20027;-76
2022/01/31 05:55:37;;;;;;;6.03;2.55;;;19.10;46.30;;;;;;6177000;28;20057;-76
2022/01/31 05:58:37;;;;;;;4.80;2.20;;;19.10;46.40;;;;;;6176567;28;20109;-75
2022/01/31 06:01:39;;;;;;;5.85;2.47;;;19.10;46.40;;;;;;6169224;28;20166;-78
2022/01/31 06:04:39;;;;;;;5.40;2.50;;;19.10;46.30;;;;;;6152478;28;20020;-76
2022/01/31 06:07:40;;;;;;;3.78;1.83;;;19.10;46.40;;;;;;6152479;28;20034;-75
2022/01/31 06:10:44;;;;;;;4.07;2.05;;;19.10;46.10;;;;;;6152878;28;20065;-76
2022/01/31 06:13:47;;;;;;;3.83;2.15;;;19.10;46.40;;;;;;6152895;28;20023;-78
2022/01/31 06:16:47;;;;;;;4.20;2.17;;;19.10;46.30;;;;;;6155689;28;20547;-76
2022/01/31 06:19:48;;;;;;;4.55;2.17;;;19.10;46.30;;;;;;6151055;28;20276;-76
2022/01/31 06:22:50;;;;;;;5.45;2.15;;;19.10;46.40;;;;;;6156166;28;20031;-75
2022/01/31 06:25:51;;;;;;;4.28;2.20;;;19.10;46.40;;;;;;6175636;28;20065;-77
2022/01/31 06:28:51;;;;;;;5.55;2.50;;;19.10;46.50;;;;;;6175875;28;20031;-76
2022/01/31 06:31:52;;;;;;;4.45;2.25;;;19.10;46.50;;;;;;6175109;28;20298;-77
2022/01/31 06:34:53;;;;;;;2.88;2.00;;;19.10;46.60;;;;;;6152124;28;20031;-76
2022/01/31 06:37:53;;;;;;;3.90;2.20;;;19.10;46.50;;;;;;6151249;29;20122;-77
2022/01/31 06:40:54;;;;;;;5.72;2.42;;;19.10;46.60;;;;;;6151433;28;20042;-76
2022/01/31 06:43:56;;;;;;;4.72;2.25;;;19.10;46.60;;;;;;6151376;29;20027;-77
2022/01/31 06:46:56;;;;;;;3.28;1.80;;;19.10;46.70;;;;;;6151613;29;20476;-77
2022/01/31 06:49:57;;;;;;;5.63;2.40;;;19.10;46.60;;;;;;6148951;29;20035;-77
2022/01/31 06:53:01;;;;;;;3.10;1.77;;;19.10;46.70;;;;;;6151555;29;20027;-77
2022/01/31 06:56:01;;;;;;;4.78;2.22;;;19.10;46.60;;;;;;6150906;29;20035;-77
2022/01/31 06:59:02;;;;;;;2.95;2.08;;;19.10;46.70;;;;;;6150642;28;20078;-76
2022/01/31 07:02:04;;;;;;;6.65;2.65;;;19.10;46.70;;;;;;6171960;28;20038;-77
2022/01/31 07:05:05;;;;;;;4.75;2.53;;;19.10;46.70;;;;;;6176532;28;20026;-77
2022/01/31 07:08:06;;;;;;;5.13;2.10;;;19.10;46.70;;;;;;6176587;28;20023;-77
2022/01/31 07:11:07;;;;;;;4.35;2.25;;;19.10;46.70;;;;;;6176971;28;20034;-77
2022/01/31 07:14:52;;;;;;;4.65;2.42;;;19.10;46.80;;;;;;6176238;28;20474;-77
2022/01/31 07:17:28;;;;;;;4.90;2.45;;;19.10;46.80;;;;;;6172656;28;20046;-77
2022/01/31 07:20:36;;;;;;;4.90;2.42;;;19.10;47.50;;;;;;6172351;28;20051;-75
2022/01/31 07:27:00;;;;;;;4.85;2.40;;;19.10;46.80;;;;;;6166771;28;20035;-77
2022/01/31 07:30:02;;;;;;;5.22;2.47;;;19.10;46.80;;;;;;6176919;28;20034;-76
2022/01/31 07:33:03;;;;;;;4.95;2.30;;;19.20;46.90;;;;;;6166269;28;20029;-75
2022/01/31 07:36:04;;;;;;;5.55;2.67;;;19.20;46.90;;;;;;6152192;29;20031;-76
2022/01/31 07:39:05;;;;;;;5.85;2.92;;;19.20;46.90;;;;;;6152327;28;20045;-75
2022/01/31 07:42:05;;;;;;;6.85;3.10;;;19.20;46.90;;;;;;6152457;28;20043;-76
2022/01/31 07:45:06;;;;;;;5.57;2.97;;;19.20;46.90;;;;;;6152089;29;20019;-77
2022/01/31 07:48:07;;;;;;;5.95;3.00;;;19.20;47.00;;;;;;6173400;28;20078;-76
2022/01/31 07:51:09;;;;;;;5.13;3.03;;;19.20;47.00;;;;;;6175795;28;20023;-77
2022/01/31 07:54:09;;;;;;;4.85;3.00;;;19.20;47.00;;;;;;6163492;28;20551;-77
2022/01/31 07:57:10;;;;;;;6.43;3.20;;;19.20;47.00;;;;;;6171776;28;20045;-77
2022/01/31 08:00:12;;;;;;;5.47;2.90;;;19.20;47.00;;;;;;6174238;28;20031;-76
2022/01/31 08:03:13;;;;;;;6.63;3.47;;;19.20;47.00;;;;;;6174103;28;20027;-77
2022/01/31 08:06:14;;;;;;;6.95;3.30;;;19.20;47.10;;;;;;6174570;28;20038;-77
2022/01/31 08:09:15;;;;;;;8.95;3.72;;;19.20;47.00;;;;;;6174033;28;20462;-76
2022/01/31 08:12:15;;;;;;;6.97;3.70;;;19.20;47.00;;;;;;6173540;28;20062;-78
2022/01/31 08:15:24;;;;;;;5.68;3.50;;;19.20;47.00;;;;;;6173885;28;20485;-76
2022/01/31 08:18:24;;;;;;;8.82;3.30;;;19.20;47.10;;;;;;6174142;28;20039;-76
2022/01/31 08:21:25;;;;;;;9.05;3.83;;;19.20;47.10;;;;;;6174011;28;20034;-75
2022/01/31 08:24:26;;;;;;;8.32;4.70;;;19.20;46.80;;;;;;6162812;28;20143;-76
2022/01/31 08:27:26;;;;;;;7.18;4.13;;;19.20;46.70;;;;;;6170795;28;20110;-76
2022/01/31 08:30:37;;;;;;;9.27;4.82;;;19.30;46.80;;;;;;6196432;28;20026;-78
2022/01/31 08:33:48;;;;;;;9.27;4.93;;;19.30;46.80;;;;;;6165307;28;20027;-78
2022/01/31 08:36:49;;;;;;;10.13;5.53;;;19.20;46.80;;;;;;6173777;28;20136;-79
2022/01/31 08:39:50;;;;;;;10.75;5.43;;;19.20;46.90;;;;;;6173761;28;20025;-77
2022/01/31 08:42:51;;;;;;;17.27;5.90;;;19.20;47.00;;;;;;6162741;28;20027;-77
2022/01/31 08:45:55;;;;;;;13.35;5.97;;;19.20;47.00;;;;;;6174363;28;20034;-76
2022/01/31 08:48:58;;;;;;;13.35;6.28;;;19.20;47.10;;;;;;6174249;28;20469;-74
2022/01/31 08:51:58;;;;;;;17.75;5.80;;;19.20;46.90;;;;;;6174425;28;20042;-76
2022/01/31 08:54:59;;;;;;;17.83;6.68;;;19.20;46.80;;;;;;6174120;28;20055;-76
2022/01/31 08:58:00;;;;;;;17.05;5.95;;;19.20;46.80;;;;;;6174035;28;20118;-77
2022/01/31 09:01:04;;;;;;;13.35;6.60;;;19.20;46.80;;;;;;6174232;28;20521;-78
2022/01/31 09:04:07;;;;;;;11.70;6.25;;;19.20;46.90;;;;;;6174007;28;20027;-77
2022/01/31 09:07:08;;;;;;;12.40;6.93;;;19.20;47.00;;;;;;6174167;28;20026;-77
2022/01/31 09:10:09;;;;;;;9.80;6.20;;;19.20;46.90;;;;;;6174160;28;20058;-77
2022/01/31 09:13:12;;;;;;;10.25;5.55;;;19.20;47.00;;;;;;6174111;28;20023;-77
2022/01/31 09:16:13;;;;;;;11.23;6.35;;;19.20;47.10;;;;;;6173519;28;20496;-76
2022/01/31 09:19:13;;;;;;;11.38;6.22;;;19.20;47.10;;;;;;6173698;28;20035;-77
2022/01/31 09:22:14;;;;;;;13.25;6.60;;;19.20;47.00;;;;;;6173477;28;20027;-75
2022/01/31 09:25:15;;;;;;;10.93;6.05;;;19.20;47.00;;;;;;6173696;28;20056;-77
2022/01/31 09:28:16;;;;;;;11.40;5.95;;;19.20;47.10;;;;;;6170313;28;20097;-76
2022/01/31 09:31:16;;;;;;;12.98;6.28;;;19.20;47.00;;;;;;6173817;28;20031;-76
2022/01/31 09:34:19;;;;;;;9.60;6.50;;;19.20;47.10;;;;;;6173231;28;20030;-75
2022/01/31 09:37:21;;;;;;;9.43;6.18;;;19.20;47.10;;;;;;6173336;28;20124;-77
2022/01/31 09:40:23;;;;;;;11.32;6.60;;;19.20;47.10;;;;;;6172717;28;20034;-76
2022/01/31 09:43:50;;;;;;;12.15;6.78;;;19.20;47.10;;;;;;6149423;29;20058;-77
2022/01/31 09:49:48;;;;;;;14.38;6.63;;;19.20;47.10;;;;;;6149684;29;20121;-76
2022/01/31 09:52:49;;;;;;;13.30;7.03;;;19.20;47.10;;;;;;6149420;29;20039;-77
2022/01/31 09:55:52;;;;;;;12.88;6.45;;;19.20;47.20;;;;;;6148929;29;20059;-77
2022/01/31 09:58:55;;;;;;;11.82;6.80;;;19.20;47.10;;;;;;6149495;29;20130;-77
2022/01/31 10:01:57;;;;;;;12.00;6.30;;;19.20;47.10;;;;;;6149187;29;20418;-77
2022/01/31 10:04:57;;;;;;;12.45;6.93;;;19.20;47.10;;;;;;6149653;29;20036;-76
2022/01/31 10:08:13;;;;;;;11.80;6.63;;;19.20;47.10;;;;;;6149123;29;20035;-77
2022/01/31 10:11:28;;;;;;;12.18;6.60;;;19.20;47.10;;;;;;6149215;29;20086;-76
2022/01/31 10:18:01;;;;;;;11.32;6.50;;;19.20;47.10;;;;;;6150877;29;20099;-78
2022/01/31 10:21:01;;;;;;;10.25;5.63;;;19.20;47.10;;;;;;6151556;28;20067;-79
2022/01/31 10:24:16;;;;;;;9.98;5.90;;;19.20;47.80;;;;;;6150458;29;20066;-77
2022/01/31 10:27:22;;;;;;;11.50;6.72;;;19.20;47.10;;;;;;6157655;28;20027;-75
2022/01/31 10:30:28;;;;;;;9.35;5.57;;;19.20;47.10;;;;;;6173411;28;20030;-77
2022/01/31 10:33:30;;;;;;;;;;;19.20;47.10;;;;;;6188426;28;20026;-76
2022/01/31 10:36:32;;;;;;;10.10;6.15;;;19.20;47.10;;;;;;6179206;28;20016;-77
2022/01/31 10:50:40;;;;;;;10.63;6.03;;;19.20;47.10;;;;;;6179153;28;20367;-78
2022/01/31 10:53:25;;;;;;;10.57;6.30;;;19.20;47.10;;;;;;6175522;28;20043;-76
2022/01/31 10:56:42;;;;;;;9.05;5.90;;;19.20;47.20;;;;;;6177009;28;20054;-77
2022/01/31 10:59:45;;;;;;;12.13;6.35;;;19.20;47.20;;;;;;6176689;28;20109;-75
2022/01/31 11:02:45;;;;;;;10.63;5.95;;;19.20;47.20;;;;;;6177047;28;20019;-77
2022/01/31 11:05:49;;;;;;;9.45;5.47;;;19.20;47.20;;;;;;6176745;28;20097;-77
2022/01/31 11:08:51;;;;;;;9.88;5.68;;;19.20;47.20;;;;;;6176904;28;20402;-76
2022/01/31 11:11:52;;;;;;;9.55;5.55;;;19.20;47.10;;;;;;6177196;28;20125;-77
2022/01/31 11:14:54;;;;;;;9.60;5.60;;;19.20;47.20;;;;;;6176440;28;20031;-76
2022/01/31 11:17:59;;;;;;;11.38;5.57;;;19.20;47.20;;;;;;6176443;28;20070;-75
2022/01/31 11:21:07;;;;;;;10.05;5.95;;;19.20;47.20;;;;;;6176260;28;20488;-76
2022/01/31 11:24:25;;;;;;;9.07;5.65;;;19.20;47.20;;;;;;6178025;28;20059;-79
2022/01/31 11:27:27;;;;;;;10.10;5.85;;;19.20;47.20;;;;;;6175771;28;20122;-78
2022/01/31 11:30:29;;;;;;;8.25;5.50;;;19.20;47.20;;;;;;6177958;28;20030;-77
2022/01/31 11:33:30;;;;;;;11.77;6.15;;;19.20;47.20;;;;;;6163423;28;20038;-75
2022/01/31 11:36:37;;;;;;;8.73;5.45;;;19.20;47.20;;;;;;6153314;28;20510;-77
2022/01/31 11:39:40;;;;;;;9.13;5.75;;;19.20;47.20;;;;;;6152788;28;20043;-77
2022/01/31 11:42:45;;;;;;;9.45;5.50;;;19.20;47.20;;;;;;6153029;28;20042;-77
2022/01/31 11:45:50;;;;;;;;;;;19.20;47.30;;;;;;6162998;28;20069;-76
2022/01/31 11:48:54;;;;;;;8.32;5.20;;;19.20;47.20;;;;;;6176521;28;19924;-78
2022/01/31 11:52:07;;;;;;;9.02;6.13;;;19.20;47.20;;;;;;6176649;28;20054;-77
2022/01/31 11:55:12;;;;;;;10.18;5.75;;;19.20;47.30;;;;;;6173007;28;20437;-77
2022/01/31 11:58:15;;;;;;;;;;;19.20;47.20;;;;;;6176425;28;20389;-77
2022/01/31 12:01:17;;;;;;;10.77;5.82;;;19.20;47.20;;;;;;6125797;29;19906;-78
2022/01/31 12:04:22;;;;;;;11.02;5.90;;;19.20;47.30;;;;;;6125884;29;20043;-74
2022/01/31 12:07:33;;;;;;;;;;;19.20;47.30;;;;;;6126647;29;20024;-76
2022/01/31 12:10:42;;;;;;;9.25;6.03;;;19.20;47.30;;;;;;6126001;29;19932;-76
2022/01/31 12:13:53;;;;;;;9.32;5.93;;;19.20;47.30;;;;;;6126345;29;20688;-78
2022/01/31 12:17:19;;;;;;;9.45;6.05;;;19.20;47.30;;;;;;6125663;29;20047;-77
2022/01/31 12:21:59;;;;;;;8.23;5.35;;;19.20;47.30;;;;;;6126271;29;20082;-78
2022/01/31 12:24:20;;;;;;;9.18;5.53;;;19.20;47.30;;;;;;6125624;29;20170;-76
2022/01/31 12:27:28;;;;;;;9.85;5.80;;;19.20;47.30;;;;;;6125716;29;20082;-77
2022/01/31 12:30:32;;;;;;;10.88;6.20;;;19.20;47.30;;;;;;6126652;28;20164;-75
2022/01/31 12:33:40;;;;;;;10.82;5.82;;;19.20;47.30;;;;;;6174776;28;20161;-77
2022/01/31 12:36:40;;;;;;;7.78;5.30;;;19.20;47.30;;;;;;6176302;28;20023;-78
2022/01/31 12:39:43;;;;;;;9.00;5.80;;;19.30;47.40;;;;;;6176457;28;20042;-78
2022/01/31 12:45:57;;;;;;;9.00;5.07;;;19.20;47.30;;;;;;6152734;29;20042;-77
2022/01/31 12:49:10;;;;;;;8.10;5.43;;;19.20;47.40;;;;;;6150292;29;20412;-78
2022/01/31 12:52:12;;;;;;;9.35;5.93;;;19.20;47.30;;;;;;6151864;29;20027;-77
2022/01/31 12:55:13;;;;;;;7.72;5.18;;;19.20;47.30;;;;;;6151650;29;20079;-77
2022/01/31 12:58:14;;;;;;;9.13;5.70;;;19.20;47.30;;;;;;6151133;28;20087;-78
2022/01/31 13:01:16;;;;;;;7.78;4.80;;;19.20;47.30;;;;;;6151612;29;20034;-77
2022/01/31 13:04:21;;;;;;;7.70;5.05;;;19.20;47.30;;;;;;6151971;29;20391;-78
2022/01/31 13:07:22;;;;;;;8.57;5.38;;;19.20;47.30;;;;;;6152506;28;20486;-77
2022/01/31 13:10:23;;;;;;;10.52;5.93;;;19.20;47.30;;;;;;6173219;28;20027;-77
2022/01/31 13:13:31;;;;;;;9.40;5.72;;;19.20;47.30;;;;;;6175192;28;20406;-78
2022/01/31 13:17:07;;;;;;;7.93;5.47;;;19.20;47.40;;;;;;6175122;28;20033;-78
2022/01/31 13:20:07;;;;;;;8.18;5.35;;;19.20;47.30;;;;;;6174826;28;20088;-77
2022/01/31 13:23:08;;;;;;;9.52;5.78;;;19.20;47.40;;;;;;6175034;28;20031;-78
2022/01/31 13:26:10;;;;;;;8.65;5.57;;;19.20;47.40;;;;;;6174749;28;20494;-76
2022/01/31 13:29:11;;;;;;;8.02;5.25;;;19.20;47.40;;;;;;6175705;28;20026;-77
2022/01/31 13:32:29;;;;;;;7.97;5.30;;;19.20;47.40;;;;;;6171150;28;20043;-77
2022/01/31 13:35:37;;;;;;;8.93;5.65;;;19.20;47.40;;;;;;6150982;28;20027;-77
2022/01/31 13:38:38;;;;;;;9.57;5.82;;;19.20;47.40;;;;;;6150628;28;20038;-77
2022/01/31 13:41:40;;;;;;;8.55;5.15;;;19.20;47.40;;;;;;6150650;28;20062;-78
2022/01/31 13:44:43;;;;;;;8.68;5.32;;;19.20;47.40;;;;;;6150602;29;20028;-78
2022/01/31 13:47:50;;;;;;;9.05;5.65;;;19.20;47.40;;;;;;6149052;28;20129;-77
2022/01/31 13:50:59;;;;;;;8.13;5.22;;;19.20;47.40;;;;;;6150506;29;20085;-77
2022/01/31 13:54:08;;;;;;;8.90;5.50;;;19.20;47.40;;;;;;6151121;29;20549;-76
2022/01/31 13:57:12;;;;;;;8.68;5.40;;;19.20;47.40;;;;;;6151193;29;20066;-78
2022/01/31 14:00:12;;;;;;;8.10;5.18;;;19.20;47.40;;;;;;6150785;29;20039;-78
2022/01/31 14:03:21;;;;;;;7.80;5.07;;;19.20;47.40;;;;;;6151091;29;20364;-77
2022/01/31 14:06:22;;;;;;;9.98;5.78;;;19.20;47.40;;;;;;6151995;28;20035;-77
2022/01/31 14:09:33;;;;;;;11.63;6.00;;;19.20;47.40;;;;;;6152605;28;20038;-78
2022/01/31 14:12:33;;;;;;;7.72;4.97;;;19.20;47.40;;;;;;6156378;29;20034;-78
2022/01/31 14:15:48;;;;;;;8.73;5.50;;;19.20;47.40;;;;;;6176819;28;20039;-77
2022/01/31 14:18:50;;;;;;;8.10;5.60;;;19.20;47.40;;;;;;6180484;28;20037;-77
2022/01/31 14:21:51;;;;;;;7.75;5.00;;;19.20;47.50;;;;;;6180484;28;20070;-77
2022/01/31 14:24:53;;;;;;;8.30;5.28;;;19.20;47.50;;;;;;6180610;28;20604;-78
2022/01/31 14:27:54;;;;;;;8.52;5.43;;;19.20;47.50;;;;;;6180598;28;20480;-77
2022/01/31 14:30:54;;;;;;;9.00;5.35;;;19.20;47.50;;;;;;6180313;28;20019;-78
2022/01/31 14:33:55;;;;;;;8.18;5.53;;;19.20;47.50;;;;;;6162734;28;20024;-77
2022/01/31 14:37:03;;;;;;;8.77;5.20;;;19.20;47.40;;;;;;6156010;28;20171;-77
2022/01/31 14:40:21;;;;;;;7.43;5.18;;;19.20;47.50;;;;;;6155162;29;20035;-77
2022/01/31 14:47:23;;;;;;;8.77;5.13;;;19.20;47.50;;;;;;6150984;28;20066;-74
2022/01/31 14:50:28;;;;;;;8.20;5.40;;;19.20;47.50;;;;;;6171259;28;20096;-77
2022/01/31 14:53:28;;;;;;;9.13;5.05;;;19.20;47.50;;;;;;6176602;28;20412;-77
2022/01/31 14:56:30;;;;;;;8.13;4.97;;;19.20;47.60;;;;;;6177468;28;20042;-77
2022/01/31 14:59:31;;;;;;;8.55;5.15;;;19.20;47.50;;;;;;6176920;28;20039;-78
2022/01/31 15:02:32;;;;;;;8.00;5.50;;;19.20;47.50;;;;;;6175751;28;20477;-77
2022/01/31 15:05:33;;;;;;;8.38;5.20;;;19.20;47.50;;;;;;6176194;28;20486;-78
2022/01/31 15:08:34;;;;;;;7.78;5.18;;;19.20;47.50;;;;;;6176343;28;20034;-77
2022/01/31 15:11:34;;;;;;;9.02;4.93;;;19.20;47.50;;;;;;6176783;28;20031;-77
2022/01/31 15:14:35;;;;;;;8.18;5.18;;;19.20;47.50;;;;;;6168884;28;20497;-76
2022/01/31 15:17:37;;;;;;;9.65;5.35;;;19.20;47.50;;;;;;6176974;28;20441;-76
2022/01/31 15:20:39;;;;;;;8.27;5.28;;;19.20;47.50;;;;;;6176171;28;20034;-77
2022/01/31 15:23:46;;;;;;;7.55;4.78;;;19.20;47.50;;;;;;6177151;28;20030;-77
2022/01/31 15:26:47;;;;;;;9.10;5.53;;;19.20;47.50;;;;;;6176358;28;20105;-77
2022/01/31 15:29:48;;;;;;;7.65;5.18;;;19.20;47.50;;;;;;6176478;28;20082;-77
2022/01/31 15:32:48;;;;;;;8.98;4.95;;;19.20;47.50;;;;;;6176558;28;20023;-77
2022/01/31 15:35:52;;;;;;;7.65;4.88;;;19.20;47.60;;;;;;6172780;28;20085;-77
2022/01/31 15:38:53;;;;;;;8.75;5.40;;;19.20;47.60;;;;;;6177209;28;20041;-76
2022/01/31 15:41:58;;;;;;;10.02;4.70;;;19.20;47.60;;;;;;6175772;28;20058;-75
2022/01/31 15:45:03;;;;;;;8.50;4.53;;;19.20;47.60;;;;;;6175881;28;20113;-77
2022/01/31 15:48:04;;;;;;;7.20;4.90;;;19.20;47.60;;;;;;6177124;28;20023;-79
2022/01/31 15:51:05;;;;;;;9.63;4.95;;;19.20;47.60;;;;;;6174870;28;20031;-78
2022/01/31 15:54:06;;;;;;;7.90;5.40;;;19.30;47.60;;;;;;6173471;28;20059;-77
2022/01/31 15:57:07;;;;;;;7.05;4.90;;;19.20;47.60;;;;;;6176004;28;20085;-77
2022/01/31 16:00:14;;;;;;;8.35;5.13;;;19.30;47.70;;;;;;6178177;28;20378;-77
2022/01/31 16:03:15;;;;;;;6.75;4.55;;;19.30;47.70;;;;;;6151927;28;20030;-76
2022/01/31 16:06:15;;;;;;;8.32;5.45;;;19.30;47.70;;;;;;6150890;28;20023;-78
2022/01/31 16:09:16;;;;;;;8.13;4.88;;;19.30;47.70;;;;;;6151635;28;20034;-76
2022/01/31 16:12:16;;;;;;;7.85;5.07;;;19.20;47.60;;;;;;6152571;28;20152;-77
2022/01/31 16:15:17;;;;;;;7.43;4.72;;;19.30;47.70;;;;;;6151212;28;20086;-76
2022/01/31 16:18:18;;;;;;;7.30;5.00;;;19.20;47.60;;;;;;6153001;28;20039;-77
2022/01/31 16:21:20;;;;;;;9.63;5.35;;;19.20;47.70;;;;;;6152496;28;20102;-77